sensor_id;sensor_type;location;lat;lon;timestamp;P1;durP1;ratioP1;P2;durP2;ratioP2
75993;SDS011;64680;53.800;9.988;2024-03-02T00:01:40;27.25;;;13.02;;
75993;SDS011;64680;53.800;9.988;2024-03-02T00:04:06;31.38;;;12.90;;
75993;SDS011;64680;53.800;9.988;2024-03-02T00:06:33;30.95;;;13.75;;
75993;SDS011;64680;53.800;9.988;2024-03-02T00:08:59;30.88;;;13.77;;
75993;SDS011;64680;53.800;9.988;2024-03-02T00:11:25;31.48;;;12.30;;
75993;SDS011;64680;53.800;9.988;2024-03-02T00:13:52;33.30;;;13.90;;
75993;SDS011;64680;53.800;9.988;2024-03-02T00:16:19;31.65;;;13.15;;
75993;SDS011;64680;53.800;9.988;2024-03-02T00:18:45;28.17;;;13.35;;
75993;SDS011;64680;53.800;9.988;2024-03-02T00:21:14;30.83;;;13.32;;
75993;SDS011;64680;53.800;9.988;2024-03-02T00:23:41;30.38;;;13.65;;
75993;SDS011;64680;53.800;9.988;2024-03-02T00:26:07;28.25;;;12.55;;
75993;SDS011;64680;53.800;9.988;2024-03-02T00:28:36;28.48;;;13.15;;
75993;SDS011;64680;53.800;9.988;2024-03-02T00:31:05;30.88;;;13.38;;
75993;SDS011;64680;53.800;9.988;2024-03-02T00:36:06;31.45;;;13.77;;
75993;SDS011;64680;53.800;9.988;2024-03-02T00:38:33;34.75;;;12.93;;
75993;SDS011;64680;53.800;9.988;2024-03-02T00:41:00;32.95;;;14.30;;
75993;SDS011;64680;53.800;9.988;2024-03-02T00:43:41;34.80;;;14.27;;
75993;SDS011;64680;53.800;9.988;2024-03-02T00:46:24;33.35;;;13.85;;
75993;SDS011;64680;53.800;9.988;2024-03-02T00:48:59;31.25;;;13.60;;
75993;SDS011;64680;53.800;9.988;2024-03-02T00:51:27;32.72;;;14.32;;
75993;SDS011;64680;53.800;9.988;2024-03-02T00:53:55;31.05;;;14.48;;
75993;SDS011;64680;53.800;9.988;2024-03-02T00:56:23;32.72;;;14.27;;
75993;SDS011;64680;53.800;9.988;2024-03-02T00:58:49;33.35;;;13.65;;
75993;SDS011;64680;53.800;9.988;2024-03-02T01:01:15;30.92;;;14.43;;
75993;SDS011;64680;53.800;9.988;2024-03-02T01:03:41;32.15;;;14.82;;
75993;SDS011;64680;53.800;9.988;2024-03-02T01:06:07;32.40;;;14.05;;
75993;SDS011;64680;53.800;9.988;2024-03-02T01:08:34;29.23;;;13.43;;
75993;SDS011;64680;53.800;9.988;2024-03-02T01:11:00;28.50;;;12.18;;
75993;SDS011;64680;53.800;9.988;2024-03-02T01:13:25;35.90;;;14.85;;
75993;SDS011;64680;53.800;9.988;2024-03-02T01:15:51;31.42;;;14.38;;
75993;SDS011;64680;53.800;9.988;2024-03-02T01:18:18;34.67;;;14.70;;
75993;SDS011;64680;53.800;9.988;2024-03-02T01:20:43;34.53;;;14.20;;
75993;SDS011;64680;53.800;9.988;2024-03-02T01:23:09;37.83;;;15.52;;
75993;SDS011;64680;53.800;9.988;2024-03-02T01:25:35;37.95;;;15.23;;
75993;SDS011;64680;53.800;9.988;2024-03-02T01:28:00;35.33;;;15.18;;
75993;SDS011;64680;53.800;9.988;2024-03-02T01:30:26;34.58;;;15.55;;
75993;SDS011;64680;53.800;9.988;2024-03-02T01:32:52;36.35;;;15.60;;
75993;SDS011;64680;53.800;9.988;2024-03-02T01:35:17;35.50;;;15.18;;
75993;SDS011;64680;53.800;9.988;2024-03-02T01:37:43;37.05;;;15.57;;
75993;SDS011;64680;53.800;9.988;2024-03-02T01:40:09;35.30;;;14.77;;
75993;SDS011;64680;53.800;9.988;2024-03-02T01:42:38;39.10;;;14.85;;
75993;SDS011;64680;53.800;9.988;2024-03-02T01:45:05;38.88;;;15.38;;
75993;SDS011;64680;53.800;9.988;2024-03-02T01:47:31;38.13;;;16.02;;
75993;SDS011;64680;53.800;9.988;2024-03-02T01:49:57;39.90;;;16.13;;
75993;SDS011;64680;53.800;9.988;2024-03-02T01:52:23;40.50;;;16.75;;
75993;SDS011;64680;53.800;9.988;2024-03-02T01:54:49;41.30;;;16.85;;
75993;SDS011;64680;53.800;9.988;2024-03-02T01:57:14;37.90;;;16.08;;
75993;SDS011;64680;53.800;9.988;2024-03-02T01:59:40;34.33;;;15.65;;
75993;SDS011;64680;53.800;9.988;2024-03-02T02:02:06;37.85;;;16.88;;
75993;SDS011;64680;53.800;9.988;2024-03-02T02:04:32;33.97;;;15.00;;
75993;SDS011;64680;53.800;9.988;2024-03-02T02:06:58;38.67;;;16.65;;
75993;SDS011;64680;53.800;9.988;2024-03-02T02:09:24;38.00;;;16.05;;
75993;SDS011;64680;53.800;9.988;2024-03-02T02:11:50;37.92;;;16.02;;
75993;SDS011;64680;53.800;9.988;2024-03-02T02:14:16;37.95;;;16.77;;
75993;SDS011;64680;53.800;9.988;2024-03-02T02:16:43;42.00;;;16.33;;
75993;SDS011;64680;53.800;9.988;2024-03-02T02:19:08;42.08;;;17.10;;
75993;SDS011;64680;53.800;9.988;2024-03-02T02:21:34;35.40;;;16.00;;
75993;SDS011;64680;53.800;9.988;2024-03-02T02:24:00;37.78;;;15.95;;
75993;SDS011;64680;53.800;9.988;2024-03-02T02:26:28;41.10;;;15.95;;
75993;SDS011;64680;53.800;9.988;2024-03-02T02:28:54;38.92;;;15.38;;
75993;SDS011;64680;53.800;9.988;2024-03-02T02:31:19;38.95;;;17.13;;
75993;SDS011;64680;53.800;9.988;2024-03-02T02:33:45;38.40;;;15.82;;
75993;SDS011;64680;53.800;9.988;2024-03-02T02:36:11;40.55;;;16.73;;
75993;SDS011;64680;53.800;9.988;2024-03-02T02:38:38;35.47;;;15.45;;
75993;SDS011;64680;53.800;9.988;2024-03-02T02:41:07;36.53;;;16.77;;
75993;SDS011;64680;53.800;9.988;2024-03-02T02:43:33;42.20;;;17.17;;
75993;SDS011;64680;53.800;9.988;2024-03-02T02:45:59;45.10;;;18.00;;
75993;SDS011;64680;53.800;9.988;2024-03-02T02:48:24;45.92;;;18.52;;
75993;SDS011;64680;53.800;9.988;2024-03-02T02:50:50;48.65;;;19.70;;
75993;SDS011;64680;53.800;9.988;2024-03-02T02:53:16;44.97;;;17.45;;
75993;SDS011;64680;53.800;9.988;2024-03-02T02:55:41;44.50;;;18.38;;
75993;SDS011;64680;53.800;9.988;2024-03-02T02:58:08;47.90;;;17.98;;
75993;SDS011;64680;53.800;9.988;2024-03-02T03:00:34;42.45;;;18.30;;
75993;SDS011;64680;53.800;9.988;2024-03-02T03:03:01;37.80;;;16.67;;
75993;SDS011;64680;53.800;9.988;2024-03-02T03:05:26;48.15;;;19.73;;
75993;SDS011;64680;53.800;9.988;2024-03-02T03:07:52;49.55;;;19.52;;
75993;SDS011;64680;53.800;9.988;2024-03-02T03:10:18;49.00;;;18.63;;
75993;SDS011;64680;53.800;9.988;2024-03-02T03:12:46;53.40;;;19.38;;
75993;SDS011;64680;53.800;9.988;2024-03-02T03:15:12;48.30;;;18.67;;
75993;SDS011;64680;53.800;9.988;2024-03-02T03:17:39;45.50;;;18.23;;
75993;SDS011;64680;53.800;9.988;2024-03-02T03:20:05;41.53;;;19.02;;
75993;SDS011;64680;53.800;9.988;2024-03-02T03:22:34;41.58;;;17.00;;
75993;SDS011;64680;53.800;9.988;2024-03-02T03:25:00;48.42;;;19.80;;
75993;SDS011;64680;53.800;9.988;2024-03-02T03:27:26;50.40;;;20.38;;
75993;SDS011;64680;53.800;9.988;2024-03-02T03:29:52;47.65;;;18.42;;
75993;SDS011;64680;53.800;9.988;2024-03-02T03:32:17;53.90;;;20.20;;
75993;SDS011;64680;53.800;9.988;2024-03-02T03:34:43;47.20;;;18.67;;
75993;SDS011;64680;53.800;9.988;2024-03-02T03:37:09;44.88;;;17.88;;
75993;SDS011;64680;53.800;9.988;2024-03-02T03:39:34;46.28;;;18.88;;
75993;SDS011;64680;53.800;9.988;2024-03-02T03:42:03;49.15;;;18.90;;
75993;SDS011;64680;53.800;9.988;2024-03-02T03:44:29;51.92;;;19.33;;
75993;SDS011;64680;53.800;9.988;2024-03-02T03:46:55;47.72;;;17.67;;
75993;SDS011;64680;53.800;9.988;2024-03-02T03:49:20;41.70;;;17.45;;
75993;SDS011;64680;53.800;9.988;2024-03-02T03:51:46;42.17;;;18.25;;
75993;SDS011;64680;53.800;9.988;2024-03-02T03:54:12;42.13;;;18.95;;
75993;SDS011;64680;53.800;9.988;2024-03-02T03:56:37;47.75;;;19.27;;
75993;SDS011;64680;53.800;9.988;2024-03-02T03:59:03;45.35;;;18.60;;
75993;SDS011;64680;53.800;9.988;2024-03-02T04:01:29;46.05;;;18.73;;
75993;SDS011;64680;53.800;9.988;2024-03-02T04:03:56;51.22;;;19.10;;
75993;SDS011;64680;53.800;9.988;2024-03-02T04:06:22;44.20;;;19.70;;
75993;SDS011;64680;53.800;9.988;2024-03-02T04:08:48;50.25;;;19.80;;
75993;SDS011;64680;53.800;9.988;2024-03-02T04:11:13;49.78;;;19.63;;
75993;SDS011;64680;53.800;9.988;2024-03-02T04:13:39;48.65;;;18.58;;
75993;SDS011;64680;53.800;9.988;2024-03-02T04:16:05;44.03;;;18.05;;
75993;SDS011;64680;53.800;9.988;2024-03-02T04:18:31;49.55;;;18.73;;
75993;SDS011;64680;53.800;9.988;2024-03-02T04:21:00;44.22;;;19.23;;
75993;SDS011;64680;53.800;9.988;2024-03-02T04:23:26;45.35;;;18.88;;
75993;SDS011;64680;53.800;9.988;2024-03-02T04:25:51;39.95;;;17.73;;
75993;SDS011;64680;53.800;9.988;2024-03-02T04:28:17;42.92;;;18.85;;
75993;SDS011;64680;53.800;9.988;2024-03-02T04:30:42;41.65;;;17.33;;
75993;SDS011;64680;53.800;9.988;2024-03-02T04:33:08;42.92;;;17.45;;
75993;SDS011;64680;53.800;9.988;2024-03-02T04:35:38;43.60;;;18.65;;
75993;SDS011;64680;53.800;9.988;2024-03-02T04:38:03;46.08;;;18.83;;
75993;SDS011;64680;53.800;9.988;2024-03-02T04:40:29;43.33;;;18.67;;
75993;SDS011;64680;53.800;9.988;2024-03-02T04:42:55;47.05;;;20.00;;
75993;SDS011;64680;53.800;9.988;2024-03-02T04:45:20;43.15;;;18.58;;
75993;SDS011;64680;53.800;9.988;2024-03-02T04:47:46;42.22;;;17.33;;
75993;SDS011;64680;53.800;9.988;2024-03-02T04:50:11;40.33;;;17.48;;
75993;SDS011;64680;53.800;9.988;2024-03-02T04:52:37;45.08;;;18.27;;
75993;SDS011;64680;53.800;9.988;2024-03-02T04:55:03;44.92;;;19.98;;
75993;SDS011;64680;53.800;9.988;2024-03-02T04:57:41;41.13;;;16.75;;
75993;SDS011;64680;53.800;9.988;2024-03-02T05:00:08;43.70;;;17.58;;
75993;SDS011;64680;53.800;9.988;2024-03-02T05:02:34;40.50;;;17.23;;
75993;SDS011;64680;53.800;9.988;2024-03-02T05:05:00;41.20;;;18.15;;
75993;SDS011;64680;53.800;9.988;2024-03-02T05:07:26;42.22;;;18.92;;
75993;SDS011;64680;53.800;9.988;2024-03-02T05:09:51;41.58;;;18.70;;
75993;SDS011;64680;53.800;9.988;2024-03-02T05:12:17;41.63;;;17.02;;
75993;SDS011;64680;53.800;9.988;2024-03-02T05:15:01;37.35;;;16.67;;
75993;SDS011;64680;53.800;9.988;2024-03-02T05:17:27;39.05;;;17.30;;
75993;SDS011;64680;53.800;9.988;2024-03-02T05:19:52;43.83;;;18.40;;
75993;SDS011;64680;53.800;9.988;2024-03-02T05:22:18;43.13;;;18.02;;
75993;SDS011;64680;53.800;9.988;2024-03-02T05:24:44;40.55;;;16.63;;
75993;SDS011;64680;53.800;9.988;2024-03-02T05:27:09;46.97;;;18.55;;
75993;SDS011;64680;53.800;9.988;2024-03-02T05:29:35;40.72;;;16.95;;
75993;SDS011;64680;53.800;9.988;2024-03-02T05:32:01;37.22;;;17.27;;
75993;SDS011;64680;53.800;9.988;2024-03-02T05:34:26;38.53;;;19.30;;
75993;SDS011;64680;53.800;9.988;2024-03-02T05:36:52;42.30;;;18.40;;
75993;SDS011;64680;53.800;9.988;2024-03-02T05:39:18;38.15;;;16.60;;
75993;SDS011;64680;53.800;9.988;2024-03-02T05:41:43;40.08;;;16.58;;
75993;SDS011;64680;53.800;9.988;2024-03-02T05:44:09;40.95;;;17.63;;
75993;SDS011;64680;53.800;9.988;2024-03-02T05:46:34;40.40;;;16.92;;
75993;SDS011;64680;53.800;9.988;2024-03-02T05:49:00;37.40;;;16.00;;
75993;SDS011;64680;53.800;9.988;2024-03-02T05:51:26;39.92;;;16.88;;
75993;SDS011;64680;53.800;9.988;2024-03-02T05:53:51;36.00;;;16.73;;
75993;SDS011;64680;53.800;9.988;2024-03-02T05:56:17;39.88;;;16.92;;
75993;SDS011;64680;53.800;9.988;2024-03-02T05:58:42;39.15;;;16.80;;
75993;SDS011;64680;53.800;9.988;2024-03-02T06:01:27;39.03;;;16.40;;
75993;SDS011;64680;53.800;9.988;2024-03-02T06:03:56;39.35;;;16.48;;
75993;SDS011;64680;53.800;9.988;2024-03-02T06:06:23;41.90;;;17.02;;
75993;SDS011;64680;53.800;9.988;2024-03-02T06:08:49;37.22;;;17.15;;
75993;SDS011;64680;53.800;9.988;2024-03-02T06:11:15;41.60;;;17.63;;
75993;SDS011;64680;53.800;9.988;2024-03-02T06:13:40;39.75;;;18.27;;
75993;SDS011;64680;53.800;9.988;2024-03-02T06:16:06;39.03;;;16.25;;
75993;SDS011;64680;53.800;9.988;2024-03-02T06:18:33;39.15;;;16.63;;
75993;SDS011;64680;53.800;9.988;2024-03-02T06:20:59;36.60;;;16.88;;
75993;SDS011;64680;53.800;9.988;2024-03-02T06:23:26;38.05;;;16.55;;
75993;SDS011;64680;53.800;9.988;2024-03-02T06:25:52;39.88;;;17.40;;
75993;SDS011;64680;53.800;9.988;2024-03-02T06:28:17;37.75;;;16.55;;
75993;SDS011;64680;53.800;9.988;2024-03-02T06:30:43;39.42;;;17.25;;
75993;SDS011;64680;53.800;9.988;2024-03-02T06:33:09;38.70;;;16.88;;
75993;SDS011;64680;53.800;9.988;2024-03-02T06:35:35;37.63;;;16.40;;
75993;SDS011;64680;53.800;9.988;2024-03-02T06:38:00;37.08;;;17.02;;
75993;SDS011;64680;53.800;9.988;2024-03-02T06:40:26;37.17;;;15.57;;
75993;SDS011;64680;53.800;9.988;2024-03-02T06:42:52;39.40;;;16.58;;
75993;SDS011;64680;53.800;9.988;2024-03-02T06:45:18;38.83;;;16.73;;
75993;SDS011;64680;53.800;9.988;2024-03-02T06:47:44;36.08;;;15.73;;
75993;SDS011;64680;53.800;9.988;2024-03-02T06:50:09;37.95;;;16.75;;
75993;SDS011;64680;53.800;9.988;2024-03-02T06:52:35;34.97;;;15.43;;
75993;SDS011;64680;53.800;9.988;2024-03-02T06:55:01;37.25;;;16.10;;
75993;SDS011;64680;53.800;9.988;2024-03-02T06:57:29;41.95;;;17.65;;
75993;SDS011;64680;53.800;9.988;2024-03-02T06:59:54;36.72;;;16.15;;
75993;SDS011;64680;53.800;9.988;2024-03-02T07:02:23;38.80;;;15.50;;
75993;SDS011;64680;53.800;9.988;2024-03-02T07:04:50;37.40;;;17.42;;
75993;SDS011;64680;53.800;9.988;2024-03-02T07:07:16;40.83;;;16.17;;
75993;SDS011;64680;53.800;9.988;2024-03-02T07:09:42;36.53;;;15.73;;
75993;SDS011;64680;53.800;9.988;2024-03-02T07:12:08;39.50;;;16.30;;
75993;SDS011;64680;53.800;9.988;2024-03-02T07:14:33;39.88;;;16.67;;
75993;SDS011;64680;53.800;9.988;2024-03-02T07:17:18;35.08;;;15.88;;
75993;SDS011;64680;53.800;9.988;2024-03-02T07:19:43;36.72;;;16.45;;
75993;SDS011;64680;53.800;9.988;2024-03-02T07:22:09;33.33;;;16.27;;
75993;SDS011;64680;53.800;9.988;2024-03-02T07:24:41;36.25;;;16.10;;
75993;SDS011;64680;53.800;9.988;2024-03-02T07:27:10;35.17;;;15.75;;
75993;SDS011;64680;53.800;9.988;2024-03-02T07:29:37;33.63;;;15.55;;
75993;SDS011;64680;53.800;9.988;2024-03-02T07:32:03;34.15;;;15.00;;
75993;SDS011;64680;53.800;9.988;2024-03-02T07:34:29;31.92;;;14.93;;
75993;SDS011;64680;53.800;9.988;2024-03-02T07:36:55;32.60;;;14.18;;
75993;SDS011;64680;53.800;9.988;2024-03-02T07:39:20;36.10;;;15.55;;
75993;SDS011;64680;53.800;9.988;2024-03-02T07:41:46;32.78;;;15.88;;
75993;SDS011;64680;53.800;9.988;2024-03-02T07:44:12;33.42;;;14.55;;
75993;SDS011;64680;53.800;9.988;2024-03-02T07:46:40;35.03;;;15.70;;
75993;SDS011;64680;53.800;9.988;2024-03-02T07:49:06;31.35;;;13.82;;
75993;SDS011;64680;53.800;9.988;2024-03-02T07:51:32;27.88;;;13.00;;
75993;SDS011;64680;53.800;9.988;2024-03-02T07:53:57;30.35;;;14.55;;
75993;SDS011;64680;53.800;9.988;2024-03-02T07:56:23;29.95;;;13.80;;
75993;SDS011;64680;53.800;9.988;2024-03-02T07:58:48;30.52;;;14.77;;
75993;SDS011;64680;53.800;9.988;2024-03-02T08:01:14;29.83;;;13.77;;
75993;SDS011;64680;53.800;9.988;2024-03-02T08:03:40;30.05;;;14.27;;
75993;SDS011;64680;53.800;9.988;2024-03-02T08:06:06;29.67;;;13.70;;
75993;SDS011;64680;53.800;9.988;2024-03-02T08:08:32;30.00;;;14.70;;
75993;SDS011;64680;53.800;9.988;2024-03-02T08:10:57;31.42;;;14.77;;
75993;SDS011;64680;53.800;9.988;2024-03-02T08:13:23;27.85;;;13.93;;
75993;SDS011;64680;53.800;9.988;2024-03-02T08:15:49;27.33;;;12.80;;
75993;SDS011;64680;53.800;9.988;2024-03-02T08:18:14;27.70;;;13.23;;
75993;SDS011;64680;53.800;9.988;2024-03-02T08:20:40;25.77;;;12.90;;
75993;SDS011;64680;53.800;9.988;2024-03-02T08:23:06;27.45;;;13.88;;
75993;SDS011;64680;53.800;9.988;2024-03-02T08:25:33;26.48;;;13.35;;
75993;SDS011;64680;53.800;9.988;2024-03-02T08:27:58;25.17;;;12.63;;
75993;SDS011;64680;53.800;9.988;2024-03-02T08:30:24;23.08;;;12.38;;
75993;SDS011;64680;53.800;9.988;2024-03-02T08:32:50;24.58;;;12.98;;
75993;SDS011;64680;53.800;9.988;2024-03-02T08:35:15;25.33;;;12.57;;
75993;SDS011;64680;53.800;9.988;2024-03-02T08:37:42;26.40;;;12.38;;
75993;SDS011;64680;53.800;9.988;2024-03-02T08:40:08;24.98;;;12.27;;
75993;SDS011;64680;53.800;9.988;2024-03-02T08:42:35;23.27;;;11.85;;
75993;SDS011;64680;53.800;9.988;2024-03-02T08:45:01;26.08;;;12.18;;
75993;SDS011;64680;53.800;9.988;2024-03-02T08:47:27;23.80;;;11.45;;
75993;SDS011;64680;53.800;9.988;2024-03-02T08:49:53;22.98;;;12.57;;
75993;SDS011;64680;53.800;9.988;2024-03-02T08:52:18;22.98;;;11.70;;
75993;SDS011;64680;53.800;9.988;2024-03-02T08:54:44;22.80;;;11.77;;
75993;SDS011;64680;53.800;9.988;2024-03-02T08:57:10;22.13;;;11.80;;
75993;SDS011;64680;53.800;9.988;2024-03-02T08:59:35;25.52;;;12.07;;
75993;SDS011;64680;53.800;9.988;2024-03-02T09:02:01;22.55;;;11.35;;
75993;SDS011;64680;53.800;9.988;2024-03-02T09:04:27;21.98;;;11.40;;
75993;SDS011;64680;53.800;9.988;2024-03-02T09:06:53;22.80;;;11.85;;
75993;SDS011;64680;53.800;9.988;2024-03-02T09:09:19;23.52;;;11.75;;
75993;SDS011;64680;53.800;9.988;2024-03-02T09:11:45;23.15;;;12.45;;
75993;SDS011;64680;53.800;9.988;2024-03-02T09:14:11;24.45;;;12.05;;
75993;SDS011;64680;53.800;9.988;2024-03-02T09:16:37;22.55;;;11.65;;
75993;SDS011;64680;53.800;9.988;2024-03-02T09:19:03;21.60;;;11.27;;
75993;SDS011;64680;53.800;9.988;2024-03-02T09:21:29;21.70;;;11.75;;
75993;SDS011;64680;53.800;9.988;2024-03-02T09:23:55;21.58;;;11.00;;
75993;SDS011;64680;53.800;9.988;2024-03-02T09:26:21;20.42;;;10.57;;
75993;SDS011;64680;53.800;9.988;2024-03-02T09:28:49;22.00;;;11.27;;
75993;SDS011;64680;53.800;9.988;2024-03-02T09:31:15;19.70;;;10.55;;
75993;SDS011;64680;53.800;9.988;2024-03-02T09:33:41;20.67;;;10.95;;
75993;SDS011;64680;53.800;9.988;2024-03-02T09:36:16;18.38;;;10.18;;
75993;SDS011;64680;53.800;9.988;2024-03-02T09:38:45;20.48;;;10.48;;
75993;SDS011;64680;53.800;9.988;2024-03-02T09:41:11;20.10;;;11.30;;
75993;SDS011;64680;53.800;9.988;2024-03-02T09:43:37;18.88;;;10.05;;
75993;SDS011;64680;53.800;9.988;2024-03-02T09:46:03;20.33;;;10.13;;
75993;SDS011;64680;53.800;9.988;2024-03-02T09:48:29;18.70;;;11.07;;
75993;SDS011;64680;53.800;9.988;2024-03-02T09:50:54;19.25;;;9.52;;
75993;SDS011;64680;53.800;9.988;2024-03-02T09:53:21;18.15;;;9.73;;
75993;SDS011;64680;53.800;9.988;2024-03-02T09:55:48;16.65;;;9.13;;
75993;SDS011;64680;53.800;9.988;2024-03-02T09:58:13;17.17;;;9.07;;
75993;SDS011;64680;53.800;9.988;2024-03-02T10:00:39;18.55;;;9.27;;
75993;SDS011;64680;53.800;9.988;2024-03-02T10:03:04;19.55;;;10.00;;
75993;SDS011;64680;53.800;9.988;2024-03-02T10:05:30;19.75;;;10.73;;
75993;SDS011;64680;53.800;9.988;2024-03-02T10:08:00;17.30;;;9.80;;
75993;SDS011;64680;53.800;9.988;2024-03-02T10:10:40;18.38;;;9.73;;
75993;SDS011;64680;53.800;9.988;2024-03-02T10:13:07;17.80;;;10.13;;
75993;SDS011;64680;53.800;9.988;2024-03-02T10:15:33;18.27;;;9.27;;
75993;SDS011;64680;53.800;9.988;2024-03-02T10:18:00;16.55;;;9.45;;
75993;SDS011;64680;53.800;9.988;2024-03-02T10:20:26;17.77;;;9.13;;
75993;SDS011;64680;53.800;9.988;2024-03-02T10:23:13;15.98;;;8.93;;
75993;SDS011;64680;53.800;9.988;2024-03-02T10:25:40;14.57;;;8.13;;
75993;SDS011;64680;53.800;9.988;2024-03-02T10:28:06;16.88;;;9.63;;
75993;SDS011;64680;53.800;9.988;2024-03-02T10:30:34;16.33;;;8.70;;
75993;SDS011;64680;53.800;9.988;2024-03-02T10:33:04;13.88;;;8.23;;
75993;SDS011;64680;53.800;9.988;2024-03-02T10:35:31;15.68;;;8.40;;
75993;SDS011;64680;53.800;9.988;2024-03-02T10:40:26;16.83;;;8.07;;
75993;SDS011;64680;53.800;9.988;2024-03-02T10:42:51;13.77;;;8.18;;
75993;SDS011;64680;53.800;9.988;2024-03-02T10:45:17;16.52;;;8.30;;
75993;SDS011;64680;53.800;9.988;2024-03-02T10:47:45;14.73;;;8.77;;
75993;SDS011;64680;53.800;9.988;2024-03-02T10:50:12;14.85;;;7.68;;
75993;SDS011;64680;53.800;9.988;2024-03-02T10:52:38;13.73;;;7.60;;
75993;SDS011;64680;53.800;9.988;2024-03-02T10:55:04;14.40;;;7.82;;
75993;SDS011;64680;53.800;9.988;2024-03-02T10:58:08;16.65;;;7.95;;
75993;SDS011;64680;53.800;9.988;2024-03-02T11:00:31;15.13;;;8.30;;
75993;SDS011;64680;53.800;9.988;2024-03-02T11:03:06;15.32;;;7.90;;
75993;SDS011;64680;53.800;9.988;2024-03-02T11:05:35;16.42;;;8.65;;
75993;SDS011;64680;53.800;9.988;2024-03-02T11:08:06;14.43;;;7.30;;
75993;SDS011;64680;53.800;9.988;2024-03-02T11:11:06;16.33;;;8.25;;
75993;SDS011;64680;53.800;9.988;2024-03-02T11:13:39;13.05;;;7.18;;
75993;SDS011;64680;53.800;9.988;2024-03-02T11:16:15;16.00;;;7.60;;
75993;SDS011;64680;53.800;9.988;2024-03-02T11:18:51;14.05;;;6.97;;
75993;SDS011;64680;53.800;9.988;2024-03-02T11:21:17;13.38;;;7.57;;
75993;SDS011;64680;53.800;9.988;2024-03-02T11:23:43;13.95;;;7.03;;
75993;SDS011;64680;53.800;9.988;2024-03-02T11:26:21;15.02;;;8.23;;
75993;SDS011;64680;53.800;9.988;2024-03-02T11:28:50;13.82;;;7.43;;
75993;SDS011;64680;53.800;9.988;2024-03-02T11:31:16;14.43;;;7.10;;
75993;SDS011;64680;53.800;9.988;2024-03-02T11:33:41;11.68;;;6.45;;
75993;SDS011;64680;53.800;9.988;2024-03-02T11:36:08;13.25;;;7.40;;
75993;SDS011;64680;53.800;9.988;2024-03-02T11:38:34;13.85;;;7.28;;
75993;SDS011;64680;53.800;9.988;2024-03-02T11:41:01;12.40;;;7.18;;
75993;SDS011;64680;53.800;9.988;2024-03-02T11:43:28;13.65;;;8.45;;
75993;SDS011;64680;53.800;9.988;2024-03-02T11:45:58;13.52;;;7.38;;
75993;SDS011;64680;53.800;9.988;2024-03-02T11:48:25;13.18;;;7.13;;
75993;SDS011;64680;53.800;9.988;2024-03-02T11:50:51;14.93;;;7.22;;
75993;SDS011;64680;53.800;9.988;2024-03-02T11:53:17;12.18;;;7.10;;
75993;SDS011;64680;53.800;9.988;2024-03-02T11:55:44;11.68;;;7.43;;
75993;SDS011;64680;53.800;9.988;2024-03-02T11:58:13;11.98;;;6.97;;
75993;SDS011;64680;53.800;9.988;2024-03-02T12:00:39;11.77;;;6.65;;
75993;SDS011;64680;53.800;9.988;2024-03-02T12:03:06;10.95;;;6.43;;
75993;SDS011;64680;53.800;9.988;2024-03-02T12:05:32;10.52;;;6.07;;
75993;SDS011;64680;53.800;9.988;2024-03-02T12:08:07;11.00;;;6.35;;
75993;SDS011;64680;53.800;9.988;2024-03-02T12:10:34;12.25;;;6.53;;
75993;SDS011;64680;53.800;9.988;2024-03-02T12:13:01;11.55;;;6.45;;
75993;SDS011;64680;53.800;9.988;2024-03-02T12:15:32;10.80;;;5.97;;
75993;SDS011;64680;53.800;9.988;2024-03-02T12:18:00;10.10;;;5.60;;
75993;SDS011;64680;53.800;9.988;2024-03-02T12:20:27;11.48;;;6.50;;
75993;SDS011;64680;53.800;9.988;2024-03-02T12:22:54;12.15;;;6.25;;
75993;SDS011;64680;53.800;9.988;2024-03-02T12:25:23;10.95;;;5.68;;
75993;SDS011;64680;53.800;9.988;2024-03-02T12:27:50;9.57;;;5.65;;
75993;SDS011;64680;53.800;9.988;2024-03-02T12:30:18;10.18;;;5.55;;
75993;SDS011;64680;53.800;9.988;2024-03-02T12:32:45;11.82;;;6.07;;
75993;SDS011;64680;53.800;9.988;2024-03-02T12:35:11;10.98;;;6.00;;
75993;SDS011;64680;53.800;9.988;2024-03-02T12:37:46;13.65;;;6.80;;
75993;SDS011;64680;53.800;9.988;2024-03-02T12:40:13;11.13;;;5.80;;
75993;SDS011;64680;53.800;9.988;2024-03-02T12:42:42;11.98;;;6.45;;
75993;SDS011;64680;53.800;9.988;2024-03-02T12:45:08;12.60;;;7.03;;
75993;SDS011;64680;53.800;9.988;2024-03-02T12:47:34;10.80;;;6.65;;
75993;SDS011;64680;53.800;9.988;2024-03-02T12:50:00;11.68;;;7.00;;
75993;SDS011;64680;53.800;9.988;2024-03-02T12:52:26;11.65;;;6.50;;
75993;SDS011;64680;53.800;9.988;2024-03-02T12:54:52;12.93;;;6.75;;
75993;SDS011;64680;53.800;9.988;2024-03-02T12:57:20;11.30;;;6.55;;
75993;SDS011;64680;53.800;9.988;2024-03-02T12:59:46;10.95;;;6.57;;
75993;SDS011;64680;53.800;9.988;2024-03-02T13:02:18;13.60;;;7.07;;
75993;SDS011;64680;53.800;9.988;2024-03-02T13:04:51;10.95;;;6.53;;
75993;SDS011;64680;53.800;9.988;2024-03-02T13:07:19;12.20;;;6.32;;
75993;SDS011;64680;53.800;9.988;2024-03-02T13:09:45;11.23;;;6.88;;
75993;SDS011;64680;53.800;9.988;2024-03-02T13:12:11;11.93;;;6.50;;
75993;SDS011;64680;53.800;9.988;2024-03-02T13:14:36;11.02;;;6.47;;
75993;SDS011;64680;53.800;9.988;2024-03-02T13:17:02;10.15;;;6.30;;
75993;SDS011;64680;53.800;9.988;2024-03-02T13:19:30;9.73;;;6.03;;
75993;SDS011;64680;53.800;9.988;2024-03-02T13:21:56;10.60;;;5.80;;
75993;SDS011;64680;53.800;9.988;2024-03-02T13:24:22;9.63;;;5.68;;
75993;SDS011;64680;53.800;9.988;2024-03-02T13:26:50;10.02;;;5.82;;
75993;SDS011;64680;53.800;9.988;2024-03-02T13:29:20;11.50;;;6.13;;
75993;SDS011;64680;53.800;9.988;2024-03-02T13:31:46;11.68;;;5.63;;
75993;SDS011;64680;53.800;9.988;2024-03-02T13:34:12;9.82;;;6.03;;
75993;SDS011;64680;53.800;9.988;2024-03-02T13:36:37;10.32;;;5.68;;
75993;SDS011;64680;53.800;9.988;2024-03-02T13:39:03;12.60;;;6.32;;
75993;SDS011;64680;53.800;9.988;2024-03-02T13:41:35;9.88;;;5.65;;
75993;SDS011;64680;53.800;9.988;2024-03-02T13:44:01;11.00;;;5.97;;
75993;SDS011;64680;53.800;9.988;2024-03-02T13:46:27;11.50;;;5.53;;
75993;SDS011;64680;53.800;9.988;2024-03-02T13:48:53;10.25;;;5.55;;
75993;SDS011;64680;53.800;9.988;2024-03-02T13:51:19;10.50;;;6.00;;
75993;SDS011;64680;53.800;9.988;2024-03-02T13:53:45;11.02;;;5.68;;
75993;SDS011;64680;53.800;9.988;2024-03-02T13:56:11;9.80;;;5.22;;
75993;SDS011;64680;53.800;9.988;2024-03-02T13:58:37;11.27;;;5.75;;
75993;SDS011;64680;53.800;9.988;2024-03-02T14:01:03;10.85;;;5.80;;
75993;SDS011;64680;53.800;9.988;2024-03-02T14:03:30;10.63;;;6.28;;
75993;SDS011;64680;53.800;9.988;2024-03-02T14:05:56;12.13;;;5.95;;
75993;SDS011;64680;53.800;9.988;2024-03-02T14:08:21;9.90;;;5.60;;
75993;SDS011;64680;53.800;9.988;2024-03-02T14:10:48;8.73;;;5.20;;
75993;SDS011;64680;53.800;9.988;2024-03-02T14:13:13;10.38;;;5.88;;
75993;SDS011;64680;53.800;9.988;2024-03-02T14:15:40;10.88;;;5.53;;
75993;SDS011;64680;53.800;9.988;2024-03-02T14:18:06;10.60;;;5.88;;
75993;SDS011;64680;53.800;9.988;2024-03-02T14:20:32;9.27;;;5.70;;
75993;SDS011;64680;53.800;9.988;2024-03-02T14:22:58;8.80;;;5.20;;
75993;SDS011;64680;53.800;9.988;2024-03-02T14:25:27;9.85;;;6.20;;
75993;SDS011;64680;53.800;9.988;2024-03-02T14:27:56;10.27;;;5.47;;
75993;SDS011;64680;53.800;9.988;2024-03-02T14:30:23;10.50;;;5.85;;